Time;durP1;ratioP1;P1;durP2;ratioP2;P2;SDS_P1;SDS_P2;PMS_P1;PMS_P2;Temp;Humidity;BMP_temperature;BMP_pressure;BME280_temperature;BME280_humidity;BME280_pressure;Samples;Min_cycle;Max_cycle;Signal;HPM_P1;HPM_P2
2021/12/01 00:01:09;;;;;;;2.88;2.60;;;;;;;;;;4955462;28;20118;-79
2021/12/01 00:03:34;;;;;;;2.17;2.08;;;;;;;;;;4955578;29;20039;-76
2021/12/01 00:06:00;;;;;;;2.47;2.28;;;;;;;;;;4955218;29;20142;-77
2021/12/01 00:08:25;;;;;;;2.92;2.72;;;;;;;;;;4955361;28;20031;-76
2021/12/01 00:10:51;;;;;;;1.95;1.85;;;;;;;;;;4955401;28;20038;-77
2021/12/01 00:13:20;;;;;;;3.15;2.72;;;;;;;;;;4954955;28;20482;-78
2021/12/01 00:15:47;;;;;;;4.97;3.85;;;;;;;;;;4954954;28;20504;-77
2021/12/01 00:18:13;;;;;;;2.53;2.42;;;;;;;;;;4954887;29;20046;-76
2021/12/01 00:20:40;;;;;;;2.45;2.25;;;;;;;;;;4954925;29;20042;-76
2021/12/01 00:23:06;;;;;;;2.33;2.22;;;;;;;;;;4954783;28;20114;-76
2021/12/01 00:25:43;;;;;;;2.58;2.38;;;;;;;;;;4954959;28;20042;-78
2021/12/01 00:28:09;;;;;;;3.40;2.50;;;;;;;;;;4954921;29;20764;-77
2021/12/01 00:30:35;;;;;;;2.38;2.28;;;;;;;;;;4937437;29;20105;-75
2021/12/01 00:33:04;;;;;;;2.42;2.22;;;;;;;;;;4954809;29;20032;-77
2021/12/01 00:35:31;;;;;;;2.55;2.35;;;;;;;;;;4955001;29;20039;-76
2021/12/01 00:37:57;;;;;;;2.63;2.45;;;;;;;;;;4954808;28;20117;-76
2021/12/01 00:40:25;;;;;;;2.38;2.28;;;;;;;;;;4954546;28;20043;-77
2021/12/01 00:43:02;;;;;;;2.60;2.40;;;;;;;;;;4954809;28;20840;-77
2021/12/01 00:45:28;;;;;;;2.45;2.35;;;;;;;;;;4953715;28;20110;-77
2021/12/01 00:47:54;;;;;;;2.70;2.50;;;;;;;;;;4954487;28;20031;-79
2021/12/01 00:50:33;;;;;;;2.55;2.38;;;;;;;;;;4954478;29;20042;-78
2021/12/01 00:53:04;;;;;;;3.28;2.47;;;;;;;;;;4954417;28;20123;-77
2021/12/01 00:55:31;;;;;;;2.65;2.45;;;;;;;;;;4954843;28;20038;-77
2021/12/01 00:57:57;;;;;;;2.30;2.20;;;;;;;;;;4954618;28;20077;-78
2021/12/01 01:00:25;;;;;;;2.17;2.08;;;;;;;;;;4954794;28;20117;-77
2021/12/01 01:02:51;;;;;;;2.50;2.30;;;;;;;;;;4954544;29;20034;-77
2021/12/01 01:05:17;;;;;;;2.45;2.25;;;;;;;;;;4954164;28;20117;-76
2021/12/01 01:07:43;;;;;;;2.42;2.33;;;;;;;;;;4954114;28;20509;-77
2021/12/01 01:10:25;;;;;;;3.15;2.35;;;;;;;;;;4954431;28;20138;-76
2021/12/01 01:18:24;;;;;;;2.45;2.28;;;;;;;;;;4953928;29;19921;-76
2021/12/01 01:20:49;;;;;;;3.03;2.83;;;;;;;;;;4953953;28;20035;-75
2021/12/01 01:23:15;;;;;;;2.30;2.20;;;;;;;;;;4953829;28;20109;-76
2021/12/01 01:25:41;;;;;;;2.72;2.53;;;;;;;;;;4953780;28;20077;-76
2021/12/01 01:28:09;;;;;;;2.78;2.58;;;;;;;;;;4953817;28;20091;-77
2021/12/01 01:30:38;;;;;;;2.67;2.50;;;;;;;;;;4967479;28;20070;-75
2021/12/01 01:33:03;;;;;;;2.80;2.60;;;;;;;;;;4973430;28;20031;-77
2021/12/01 01:35:29;;;;;;;2.83;2.55;;;;;;;;;;4973136;28;20057;-77
2021/12/01 01:37:57;;;;;;;2.50;2.30;;;;;;;;;;4973543;28;20067;-77
2021/12/01 01:40:23;;;;;;;2.70;2.50;;;;;;;;;;4973564;28;20039;-76
2021/12/01 01:42:48;;;;;;;3.25;2.75;;;;;;;;;;4972872;28;20386;-76
2021/12/01 01:45:14;;;;;;;2.67;2.50;;;;;;;;;;4955431;28;20034;-77
2021/12/01 01:47:59;;;;;;;2.88;2.67;;;;;;;;;;4955809;28;20045;-77
2021/12/01 01:50:35;;;;;;;2.42;2.28;;;;;;;;;;4973214;28;20035;-78
2021/12/01 01:53:33;;;;;;;2.28;2.17;;;;;;;;;;4972973;28;20042;-76
2021/12/01 01:56:01;;;;;;;2.63;2.42;;;;;;;;;;4964612;28;20042;-77
2021/12/01 01:58:28;;;;;;;2.53;2.40;;;;;;;;;;4973107;28;20062;-76
2021/12/01 02:01:08;;;;;;;2.15;2.05;;;;;;;;;;4972866;28;20037;-78
2021/12/01 02:03:35;;;;;;;2.42;2.33;;;;;;;;;;4972743;28;20031;-75
2021/12/01 02:06:01;;;;;;;3.22;2.70;;;;;;;;;;4972642;28;20113;-76
2021/12/01 02:08:37;;;;;;;2.63;2.50;;;;;;;;;;4954862;28;20034;-76
2021/12/01 02:11:12;;;;;;;2.72;2.53;;;;;;;;;;4955172;28;20030;-77
2021/12/01 02:13:42;;;;;;;2.38;2.28;;;;;;;;;;4972543;28;20058;-76
2021/12/01 02:16:09;;;;;;;3.90;3.70;;;;;;;;;;4972825;28;20397;-76
2021/12/01 02:18:34;;;;;;;1.92;1.83;;;;;;;;;;4972268;28;20126;-77
2021/12/01 02:21:09;;;;;;;2.83;2.55;;;;;;;;;;4972067;28;20117;-77
2021/12/01 02:23:36;;;;;;;2.67;2.47;;;;;;;;;;4972001;28;20039;-76
2021/12/01 02:26:04;;;;;;;2.38;2.20;;;;;;;;;;4972151;28;20034;-76
2021/12/01 02:28:30;;;;;;;4.20;3.90;;;;;;;;;;4971950;28;20433;-77
2021/12/01 02:31:02;;;;;;;2.45;2.30;;;;;;;;;;4971902;28;20535;-78
2021/12/01 02:33:28;;;;;;;2.50;2.38;;;;;;;;;;4972206;28;20034;-76
2021/12/01 02:36:06;;;;;;;3.00;2.20;;;;;;;;;;4972312;28;20038;-76
2021/12/01 02:38:32;;;;;;;2.35;2.25;;;;;;;;;;4971967;28;20069;-77
2021/12/01 02:41:01;;;;;;;3.65;3.25;;;;;;;;;;4972101;28;20066;-76
2021/12/01 02:43:28;;;;;;;2.17;2.08;;;;;;;;;;4971904;28;20039;-77
2021/12/01 02:45:55;;;;;;;3.53;2.50;;;;;;;;;;4971956;28;20035;-77
2021/12/01 02:48:23;;;;;;;2.55;2.35;;;;;;;;;;4971661;28;20126;-77
2021/12/01 02:50:56;;;;;;;3.63;2.53;;;;;;;;;;4954252;28;20088;-78
2021/12/01 02:53:29;;;;;;;2.67;2.47;;;;;;;;;;4971923;28;20089;-76
2021/12/01 02:56:08;;;;;;;2.88;2.63;;;;;;;;;;4971737;28;20097;-77
2021/12/01 02:59:01;;;;;;;2.67;2.47;;;;;;;;;;4971511;28;20039;-76
2021/12/01 03:01:29;;;;;;;2.53;2.33;;;;;;;;;;4964571;28;20038;-77
2021/12/01 03:03:56;;;;;;;2.35;2.15;;;;;;;;;;4971724;28;20061;-77
2021/12/01 03:06:24;;;;;;;2.30;2.10;;;;;;;;;;4971736;28;20038;-78
2021/12/01 03:08:50;;;;;;;2.83;2.63;;;;;;;;;;4973453;28;20031;-76
2021/12/01 03:11:16;;;;;;;2.80;2.60;;;;;;;;;;4958286;28;20039;-77
2021/12/01 03:13:42;;;;;;;2.88;2.30;;;;;;;;;;4975466;28;20035;-76
2021/12/01 03:16:07;;;;;;;2.65;2.45;;;;;;;;;;4975510;28;20077;-78
2021/12/01 03:18:33;;;;;;;2.50;2.33;;;;;;;;;;4975203;28;20410;-76
2021/12/01 03:20:59;;;;;;;2.70;2.47;;;;;;;;;;4974750;28;20354;-77
2021/12/01 03:23:28;;;;;;;2.72;2.53;;;;;;;;;;4975109;28;20486;-76
2021/12/01 03:25:54;;;;;;;2.88;2.10;;;;;;;;;;4975352;28;20054;-76
2021/12/01 03:28:25;;;;;;;2.47;2.33;;;;;;;;;;4975305;28;20054;-76
2021/12/01 03:30:51;;;;;;;2.42;2.33;;;;;;;;;;4957981;28;20105;-76
2021/12/01 03:33:22;;;;;;;2.38;2.17;;;;;;;;;;4974619;28;20058;-77
2021/12/01 03:35:50;;;;;;;2.17;2.03;;;;;;;;;;4974882;28;20035;-77
2021/12/01 03:38:17;;;;;;;2.70;2.22;;;;;;;;;;4974977;28;20065;-77
2021/12/01 03:40:43;;;;;;;3.08;2.70;;;;;;;;;;4974936;28;20031;-77
2021/12/01 03:43:09;;;;;;;2.47;2.30;;;;;;;;;;4957375;28;20173;-77
2021/12/01 03:45:36;;;;;;;3.92;3.63;;;;;;;;;;4974711;28;20469;-78
2021/12/01 03:48:05;;;;;;;2.63;2.42;;;;;;;;;;4975028;28;20041;-80
2021/12/01 03:50:31;;;;;;;2.90;2.70;;;;;;;;;;4974904;28;20042;-76
2021/12/01 03:52:57;;;;;;;2.25;2.15;;;;;;;;;;4974502;28;20034;-78
2021/12/01 03:55:22;;;;;;;2.88;2.35;;;;;;;;;;4974483;28;20035;-77
2021/12/01 03:57:59;;;;;;;2.97;2.17;;;;;;;;;;4974616;28;20042;-77
2021/12/01 04:00:25;;;;;;;2.38;2.28;;;;;;;;;;4974312;28;20046;-78
2021/12/01 04:03:00;;;;;;;2.45;2.35;;;;;;;;;;4974306;28;20062;-77
2021/12/01 04:05:30;;;;;;;3.55;3.35;;;;;;;;;;4974253;28;20099;-76
2021/12/01 04:07:56;;;;;;;4.00;3.80;;;;;;;;;;4974278;28;20448;-76
2021/12/01 04:10:22;;;;;;;2.47;2.28;;;;;;;;;;4974246;28;20067;-76
2021/12/01 04:12:48;;;;;;;4.05;3.75;;;;;;;;;;4974076;28;20516;-76
2021/12/01 04:15:15;;;;;;;2.63;2.45;;;;;;;;;;4974283;28;20121;-77
2021/12/01 04:17:43;;;;;;;2.03;1.92;;;;;;;;;;4974196;28;20043;-77
2021/12/01 04:20:17;;;;;;;2.33;2.22;;;;;;;;;;4974204;28;20089;-77
2021/12/01 04:22:44;;;;;;;3.50;2.22;;;;;;;;;;4974175;28;20037;-76
2021/12/01 04:25:13;;;;;;;4.07;2.67;;;;;;;;;;4974246;28;20619;-77
2021/12/01 04:27:46;;;;;;;2.30;2.10;;;;;;;;;;4973989;28;20038;-76
2021/12/01 04:30:18;;;;;;;2.47;2.33;;;;;;;;;;4963236;28;20522;-77
2021/12/01 04:32:43;;;;;;;2.47;2.30;;;;;;;;;;4954445;28;20496;-75
2021/12/01 04:35:09;;;;;;;2.65;2.33;;;;;;;;;;4954721;28;20039;-76
2021/12/01 04:37:35;;;;;;;2.78;2.55;;;;;;;;;;4954556;28;20071;-75
2021/12/01 04:40:01;;;;;;;2.65;2.20;;;;;;;;;;4954479;29;20387;-75
2021/12/01 04:42:29;;;;;;;2.53;2.33;;;;;;;;;;4954130;29;20094;-76
2021/12/01 04:44:55;;;;;;;2.42;2.33;;;;;;;;;;4937034;29;20102;-76
2021/12/01 04:47:28;;;;;;;2.63;2.42;;;;;;;;;;4954123;29;20043;-75
2021/12/01 04:49:53;;;;;;;2.45;2.33;;;;;;;;;;4953399;29;20031;-76
2021/12/01 04:52:19;;;;;;;2.88;2.67;;;;;;;;;;4953545;29;20042;-75
2021/12/01 04:54:44;;;;;;;2.33;2.22;;;;;;;;;;4953548;28;20039;-75
2021/12/01 04:57:09;;;;;;;3.83;3.63;;;;;;;;;;4953777;28;20402;-75
2021/12/01 04:59:37;;;;;;;1.80;1.70;;;;;;;;;;4953796;28;20043;-75
2021/12/01 05:02:03;;;;;;;2.33;2.15;;;;;;;;;;4936559;29;20046;-76
2021/12/01 05:04:29;;;;;;;2.55;2.35;;;;;;;;;;4953572;28;20397;-76
2021/12/01 05:06:55;;;;;;;2.50;2.30;;;;;;;;;;4953724;28;20118;-76
2021/12/01 05:09:20;;;;;;;3.03;2.75;;;;;;;;;;4953671;29;20548;-75
2021/12/01 05:11:46;;;;;;;1.88;1.77;;;;;;;;;;4953400;28;20062;-75
2021/12/01 05:14:15;;;;;;;3.50;2.38;;;;;;;;;;4953792;28;20086;-76
2021/12/01 05:16:41;;;;;;;2.45;2.25;;;;;;;;;;4953406;28;20131;-75
2021/12/01 05:19:09;;;;;;;3.92;3.58;;;;;;;;;;4935944;29;20409;-77
2021/12/01 05:21:35;;;;;;;2.17;1.98;;;;;;;;;;4953637;29;20081;-75
2021/12/01 05:24:01;;;;;;;2.20;2.10;;;;;;;;;;4953152;28;20042;-76
2021/12/01 05:26:27;;;;;;;2.53;2.33;;;;;;;;;;4935312;29;20038;-77
2021/12/01 05:28:52;;;;;;;3.03;2.65;;;;;;;;;;4953078;28;20047;-76
2021/12/01 05:31:18;;;;;;;2.10;1.98;;;;;;;;;;4952727;28;20043;-76
2021/12/01 05:33:46;;;;;;;2.50;2.25;;;;;;;;;;4953327;28;20501;-76
2021/12/01 05:36:11;;;;;;;2.55;2.45;;;;;;;;;;4953122;29;20042;-74
2021/12/01 05:38:37;;;;;;;3.55;2.70;;;;;;;;;;4952875;28;20486;-75
2021/12/01 05:41:03;;;;;;;2.60;2.40;;;;;;;;;;4936281;29;20942;-76
2021/12/01 05:43:29;;;;;;;3.28;2.65;;;;;;;;;;4952958;29;20049;-76
2021/12/01 05:45:55;;;;;;;2.45;2.30;;;;;;;;;;4952862;29;20078;-77
2021/12/01 05:48:21;;;;;;;2.42;2.22;;;;;;;;;;4952723;29;20077;-77
2021/12/01 05:50:46;;;;;;;4.85;4.55;;;;;;;;;;4952769;28;20483;-75
2021/12/01 05:53:13;;;;;;;2.70;2.50;;;;;;;;;;4952831;29;20039;-75
2021/12/01 05:55:45;;;;;;;2.55;2.35;;;;;;;;;;4935754;29;20046;-76
2021/12/01 05:58:11;;;;;;;2.50;2.30;;;;;;;;;;4935660;29;20034;-74
2021/12/01 06:00:36;;;;;;;2.83;2.35;;;;;;;;;;4952708;29;20039;-75
2021/12/01 06:03:02;;;;;;;2.50;2.20;;;;;;;;;;4952390;29;20493;-75
2021/12/01 06:05:28;;;;;;;2.38;2.15;;;;;;;;;;4952400;28;20482;-77
2021/12/01 06:07:54;;;;;;;2.22;2.13;;;;;;;;;;4952341;28;20445;-76
2021/12/01 06:10:20;;;;;;;2.17;2.08;;;;;;;;;;4952171;29;20049;-76
2021/12/01 06:12:46;;;;;;;2.50;2.30;;;;;;;;;;4952150;28;20470;-76
2021/12/01 06:15:14;;;;;;;2.30;2.20;;;;;;;;;;4952270;28;20042;-75
2021/12/01 06:17:41;;;;;;;2.85;2.35;;;;;;;;;;4952251;29;20147;-76
2021/12/01 06:20:07;;;;;;;2.45;2.35;;;;;;;;;;4952203;28;20043;-75
2021/12/01 06:22:33;;;;;;;4.10;3.83;;;;;;;;;;4952238;28;20390;-76
2021/12/01 06:24:58;;;;;;;4.15;2.25;;;;;;;;;;4952279;28;20041;-75
2021/12/01 06:27:25;;;;;;;2.80;2.60;;;;;;;;;;4952160;28;20497;-75
2021/12/01 06:29:52;;;;;;;3.40;2.67;;;;;;;;;;4952156;28;20146;-76
2021/12/01 06:32:17;;;;;;;2.80;2.50;;;;;;;;;;4952119;28;20200;-77
2021/12/01 06:34:43;;;;;;;2.95;2.60;;;;;;;;;;4952212;29;20039;-77
2021/12/01 06:37:09;;;;;;;2.63;2.45;;;;;;;;;;4952496;28;20121;-77
2021/12/01 06:39:34;;;;;;;2.63;2.42;;;;;;;;;;4952315;29;20556;-75
2021/12/01 06:42:00;;;;;;;3.13;2.75;;;;;;;;;;4952133;28;20517;-75
2021/12/01 06:44:25;;;;;;;2.65;2.45;;;;;;;;;;4955108;28;20041;-74
2021/12/01 06:46:51;;;;;;;2.58;2.42;;;;;;;;;;4956607;28;20039;-77
2021/12/01 06:49:17;;;;;;;3.45;2.95;;;;;;;;;;4956191;28;20820;-76
2021/12/01 06:51:42;;;;;;;3.15;2.92;;;;;;;;;;4956219;28;20039;-77
2021/12/01 06:54:08;;;;;;;2.83;2.53;;;;;;;;;;4956152;28;20039;-76
2021/12/01 06:56:33;;;;;;;2.42;2.22;;;;;;;;;;4956071;28;20172;-76
2021/12/01 06:59:03;;;;;;;2.67;2.42;;;;;;;;;;4956081;29;20145;-79
2021/12/01 07:01:29;;;;;;;3.28;2.65;;;;;;;;;;4955970;28;20031;-74
2021/12/01 07:03:54;;;;;;;2.97;2.67;;;;;;;;;;4955818;28;20043;-76
2021/12/01 07:06:20;;;;;;;4.30;2.53;;;;;;;;;;4955865;29;20078;-76
2021/12/01 07:08:45;;;;;;;3.15;2.58;;;;;;;;;;4955960;28;20031;-75
2021/12/01 07:11:11;;;;;;;2.78;2.58;;;;;;;;;;4939025;29;20035;-76
2021/12/01 07:13:36;;;;;;;2.25;2.08;;;;;;;;;;4955887;29;20126;-76
2021/12/01 07:16:02;;;;;;;2.35;2.25;;;;;;;;;;4955793;28;20043;-76
2021/12/01 07:18:28;;;;;;;3.13;2.92;;;;;;;;;;4955897;28;20125;-75
2021/12/01 07:20:54;;;;;;;3.13;2.63;;;;;;;;;;4956121;28;20043;-75
2021/12/01 07:23:19;;;;;;;5.35;2.63;;;;;;;;;;4938865;29;20031;-76
2021/12/01 07:25:48;;;;;;;2.95;2.75;;;;;;;;;;4945808;28;20039;-77
2021/12/01 07:28:14;;;;;;;3.65;2.70;;;;;;;;;;4940079;28;20378;-76
2021/12/01 07:30:43;;;;;;;3.83;2.58;;;;;;;;;;4938133;29;20065;-76
2021/12/01 07:33:09;;;;;;;5.32;2.67;;;;;;;;;;4972352;28;20490;-76
2021/12/01 07:35:35;;;;;;;3.25;2.53;;;;;;;;;;4973805;28;20113;-76
2021/12/01 07:38:00;;;;;;;2.92;2.60;;;;;;;;;;4974088;28;20113;-76
2021/12/01 07:40:26;;;;;;;2.80;2.60;;;;;;;;;;4973518;28;20062;-74
2021/12/01 07:42:51;;;;;;;2.72;2.53;;;;;;;;;;4974471;28;20031;-76
2021/12/01 07:45:18;;;;;;;3.25;2.65;;;;;;;;;;4939067;29;20027;-77
2021/12/01 07:47:44;;;;;;;3.00;2.80;;;;;;;;;;4953956;29;20524;-73
2021/12/01 07:50:10;;;;;;;2.65;2.45;;;;;;;;;;4948833;29;20046;-74
2021/12/01 07:52:36;;;;;;;2.42;2.22;;;;;;;;;;4954007;29;20031;-75
2021/12/01 07:55:03;;;;;;;2.72;2.40;;;;;;;;;;4953550;28;20524;-75
2021/12/01 07:57:29;;;;;;;3.00;2.65;;;;;;;;;;4954626;29;20039;-75
2021/12/01 07:59:54;;;;;;;3.28;3.08;;;;;;;;;;4954462;29;20093;-75
2021/12/01 08:02:20;;;;;;;2.67;2.47;;;;;;;;;;4953890;29;20062;-75
2021/12/01 08:04:45;;;;;;;2.90;2.65;;;;;;;;;;4954057;29;20155;-74
2021/12/01 08:07:11;;;;;;;3.00;2.72;;;;;;;;;;4953999;29;20039;-75
2021/12/01 08:09:36;;;;;;;4.00;2.42;;;;;;;;;;4953397;29;20097;-76
2021/12/01 08:12:01;;;;;;;3.03;2.72;;;;;;;;;;4948976;28;20036;-76
2021/12/01 08:14:27;;;;;;;5.22;4.80;;;;;;;;;;4936642;29;20152;-76
2021/12/01 08:16:53;;;;;;;3.75;3.47;;;;;;;;;;4953129;29;20513;-75
2021/12/01 08:19:19;;;;;;;2.88;2.67;;;;;;;;;;4954101;28;20046;-74
2021/12/01 08:21:49;;;;;;;3.45;3.20;;;;;;;;;;4970817;28;20126;-76
2021/12/01 08:24:15;;;;;;;2.78;2.58;;;;;;;;;;4972647;28;20038;-75
2021/12/01 08:26:42;;;;;;;2.60;2.40;;;;;;;;;;4971336;28;20038;-77
2021/12/01 08:29:08;;;;;;;2.75;2.55;;;;;;;;;;4972458;28;20042;-75
2021/12/01 08:31:33;;;;;;;2.45;2.10;;;;;;;;;;4953764;28;20046;-74
2021/12/01 08:33:59;;;;;;;2.33;2.15;;;;;;;;;;4969283;28;20493;-73
2021/12/01 08:36:25;;;;;;;3.42;3.22;;;;;;;;;;4972728;28;20054;-74
2021/12/01 08:38:50;;;;;;;2.83;2.65;;;;;;;;;;4972439;28;20047;-73
2021/12/01 08:41:16;;;;;;;2.72;2.58;;;;;;;;;;4972465;28;20129;-76
2021/12/01 08:43:42;;;;;;;2.70;2.53;;;;;;;;;;4955057;28;20272;-75
2021/12/01 08:46:11;;;;;;;2.88;2.58;;;;;;;;;;4972395;28;20039;-75
2021/12/01 08:48:37;;;;;;;2.85;2.60;;;;;;;;;;4955185;28;20442;-75
2021/12/01 08:51:04;;;;;;;3.00;2.55;;;;;;;;;;4972270;28;20058;-75
2021/12/01 08:53:32;;;;;;;3.20;2.83;;;;;;;;;;4969996;28;20035;-74
2021/12/01 08:56:02;;;;;;;2.85;2.65;;;;;;;;;;4972028;28;20520;-75
2021/12/01 08:58:29;;;;;;;2.60;2.38;;;;;;;;;;4972735;28;20100;-74
2021/12/01 09:00:55;;;;;;;2.97;2.78;;;;;;;;;;4971392;28;20101;-75
2021/12/01 09:03:23;;;;;;;2.35;2.17;;;;;;;;;;4972157;28;20970;-76
2021/12/01 09:05:50;;;;;;;7.07;6.57;;;;;;;;;;4971744;28;20603;-75
2021/12/01 09:08:18;;;;;;;2.38;2.10;;;;;;;;;;4972406;28;20062;-76
2021/12/01 09:10:44;;;;;;;2.65;2.45;;;;;;;;;;4971545;28;20121;-75
2021/12/01 09:13:10;;;;;;;4.47;2.55;;;;;;;;;;4972198;28;20038;-76
2021/12/01 09:15:35;;;;;;;3.00;2.75;;;;;;;;;;4968616;28;20387;-76
2021/12/01 09:18:01;;;;;;;2.90;2.70;;;;;;;;;;4971441;28;20505;-75
2021/12/01 09:20:27;;;;;;;3.35;2.88;;;;;;;;;;4965341;28;20039;-75
2021/12/01 09:22:52;;;;;;;2.53;2.35;;;;;;;;;;4952011;29;20035;-76
2021/12/01 09:25:18;;;;;;;2.88;2.67;;;;;;;;;;4934812;29;20042;-76
2021/12/01 09:27:45;;;;;;;4.40;4.20;;;;;;;;;;4952074;29;20413;-75
2021/12/01 09:30:13;;;;;;;2.85;2.65;;;;;;;;;;4952636;29;20082;-75
2021/12/01 09:32:38;;;;;;;3.65;2.33;;;;;;;;;;4952304;29;20046;-77
2021/12/01 09:35:09;;;;;;;2.47;2.20;;;;;;;;;;4952539;28;20035;-76
2021/12/01 09:37:37;;;;;;;;;;;;;;;;;;4949577;28;20035;-75
2021/12/01 09:40:06;;;;;;;4.75;2.42;;;;;;;;;;4952306;28;19941;-78
2021/12/01 09:42:31;;;;;;;2.75;2.55;;;;;;;;;;4952588;29;20061;-76
2021/12/01 09:44:57;;;;;;;2.45;2.25;;;;;;;;;;4952241;28;20039;-75
2021/12/01 09:47:24;;;;;;;3.20;2.60;;;;;;;;;;4951691;29;20119;-76
2021/12/01 09:49:50;;;;;;;2.72;2.53;;;;;;;;;;4952325;29;20101;-76
2021/12/01 09:52:18;;;;;;;2.80;2.60;;;;;;;;;;4952416;28;20374;-77
2021/12/01 09:54:43;;;;;;;2.70;2.40;;;;;;;;;;4951813;29;20035;-76
2021/12/01 09:57:13;;;;;;;2.40;2.28;;;;;;;;;;4952224;29;20063;-76
2021/12/01 09:59:41;;;;;;;4.85;2.75;;;;;;;;;;4948582;28;20045;-76
2021/12/01 10:02:07;;;;;;;2.58;2.38;;;;;;;;;;4951268;29;20035;-76
2021/12/01 10:04:32;;;;;;;3.13;2.33;;;;;;;;;;4951930;29;20037;-75
2021/12/01 10:07:13;;;;;;;3.97;3.67;;;;;;;;;;4951637;29;20401;-76
2021/12/01 10:09:44;;;;;;;2.50;2.38;;;;;;;;;;4951701;29;20069;-75
2021/12/01 10:12:10;;;;;;;3.00;2.70;;;;;;;;;;4940176;29;20042;-74
2021/12/01 10:14:35;;;;;;;2.70;2.20;;;;;;;;;;4932376;29;20055;-71
2021/12/01 10:17:01;;;;;;;3.22;2.92;;;;;;;;;;4932958;29;20490;-81
2021/12/01 10:19:28;;;;;;;4.40;2.72;;;;;;;;;;4934323;29;20035;-77
2021/12/01 10:21:54;;;;;;;2.55;2.35;;;;;;;;;;4966819;28;20035;-77
2021/12/01 10:24:29;;;;;;;2.90;2.58;;;;;;;;;;4971853;28;20121;-78
2021/12/01 10:26:57;;;;;;;3.65;3.40;;;;;;;;;;4971263;28;20546;-78
2021/12/01 10:29:29;;;;;;;2.13;1.98;;;;;;;;;;4971557;28;20058;-80
2021/12/01 10:32:07;;;;;;;2.47;2.28;;;;;;;;;;4933267;28;20051;-77
2021/12/01 10:34:35;;;;;;;2.45;2.08;;;;;;;;;;4933606;29;20068;-79
2021/12/01 10:37:25;;;;;;;3.25;2.72;;;;;;;;;;4916329;29;20054;-80
2021/12/01 10:40:15;;;;;;;2.42;2.33;;;;;;;;;;4933427;29;20501;-81
2021/12/01 10:43:08;;;;;;;3.17;2.58;;;;;;;;;;4932432;29;20027;-79
2021/12/01 10:45:40;;;;;;;3.10;2.80;;;;;;;;;;4933317;29;20089;-78
2021/12/01 10:48:09;;;;;;;2.08;1.98;;;;;;;;;;4932584;29;20044;-76
2021/12/01 10:50:40;;;;;;;2.60;2.40;;;;;;;;;;4932297;29;20621;-77
2021/12/01 10:53:13;;;;;;;1.90;1.67;;;;;;;;;;4914701;29;20032;-78
2021/12/01 10:55:50;;;;;;;3.42;2.40;;;;;;;;;;4932478;29;20143;-77
2021/12/01 10:58:17;;;;;;;5.05;4.75;;;;;;;;;;4932603;29;20036;-77
2021/12/01 11:00:48;;;;;;;2.88;2.67;;;;;;;;;;4932132;29;20038;-78
2021/12/01 11:03:21;;;;;;;2.80;2.05;;;;;;;;;;4932275;29;20118;-78
2021/12/01 11:05:47;;;;;;;3.70;2.40;;;;;;;;;;4927959;29;20039;-77
2021/12/01 11:08:22;;;;;;;3.50;3.03;;;;;;;;;;4932091;29;20035;-79
2021/12/01 11:10:53;;;;;;;2.92;2.63;;;;;;;;;;4932590;29;20040;-76
2021/12/01 11:13:20;;;;;;;2.63;2.13;;;;;;;;;;4932456;29;20114;-76
2021/12/01 11:15:54;;;;;;;2.83;2.63;;;;;;;;;;4932214;29;20367;-78
2021/12/01 11:18:25;;;;;;;3.78;2.63;;;;;;;;;;4914452;29;20050;-79
2021/12/01 11:20:55;;;;;;;2.95;2.42;;;;;;;;;;4952374;28;20170;-80
2021/12/01 11:23:22;;;;;;;2.28;2.13;;;;;;;;;;4971345;28;20824;-79
2021/12/01 11:25:54;;;;;;;3.45;2.92;;;;;;;;;;4954192;28;20035;-78
2021/12/01 11:28:23;;;;;;;4.20;2.60;;;;;;;;;;4964062;28;20081;-81
2021/12/01 11:30:53;;;;;;;2.50;2.28;;;;;;;;;;4947559;29;20110;-79
2021/12/01 11:33:20;;;;;;;4.70;2.67;;;;;;;;;;4936012;29;20036;-78
2021/12/01 11:36:07;;;;;;;2.90;2.70;;;;;;;;;;4936729;29;20046;-80
2021/12/01 11:38:34;;;;;;;2.50;2.20;;;;;;;;;;4935853;29;20031;-78
2021/12/01 11:41:01;;;;;;;3.58;2.53;;;;;;;;;;4918952;29;20499;-80
2021/12/01 11:43:29;;;;;;;3.63;2.60;;;;;;;;;;4936263;29;20666;-79
2021/12/01 11:45:55;;;;;;;2.67;2.47;;;;;;;;;;4935347;29;20039;-79
2021/12/01 11:48:45;;;;;;;2.92;2.72;;;;;;;;;;4931854;29;20031;-78
2021/12/01 11:51:11;;;;;;;2.70;2.15;;;;;;;;;;4935592;29;20047;-78
2021/12/01 11:53:39;;;;;;;5.72;5.40;;;;;;;;;;4935408;29;20417;-79
2021/12/01 11:56:14;;;;;;;2.42;2.33;;;;;;;;;;4933800;29;20035;-79
2021/12/01 11:59:05;;;;;;;3.20;2.33;;;;;;;;;;4934951;29;20038;-79
2021/12/01 12:01:33;;;;;;;2.58;2.38;;;;;;;;;;4935390;29;20125;-80
2021/12/01 12:04:01;;;;;;;3.75;3.22;;;;;;;;;;4935708;29;20038;-78
2021/12/01 12:06:28;;;;;;;2.63;2.42;;;;;;;;;;4934773;29;20079;-80
2021/12/01 12:08:53;;;;;;;2.50;2.30;;;;;;;;;;4935626;29;20072;-78
2021/12/01 12:11:43;;;;;;;2.88;2.67;;;;;;;;;;4931406;29;20043;-78
2021/12/01 12:14:30;;;;;;;2.47;2.28;;;;;;;;;;4917253;29;20082;-79
2021/12/01 12:17:06;;;;;;;2.60;2.50;;;;;;;;;;4935206;29;20071;-79
2021/12/01 12:19:54;;;;;;;6.10;2.70;;;;;;;;;;4935205;29;20577;-80
2021/12/01 12:22:50;;;;;;;3.03;2.83;;;;;;;;;;4935748;29;20066;-78
2021/12/01 12:25:50;;;;;;;2.40;2.20;;;;;;;;;;4915726;29;20537;-83
2021/12/01 12:28:32;;;;;;;3.38;2.85;;;;;;;;;;4933141;29;20047;-78
2021/12/01 12:31:18;;;;;;;2.58;2.38;;;;;;;;;;4934350;29;20100;-78
2021/12/01 12:33:50;;;;;;;2.22;2.13;;;;;;;;;;4931643;29;20048;-79
2021/12/01 12:36:16;;;;;;;5.50;2.78;;;;;;;;;;4934356;29;20051;-79
2021/12/01 12:39:21;;;;;;;3.47;2.47;;;;;;;;;;4934634;29;20494;-78
2021/12/01 12:42:04;;;;;;;3.08;2.78;;;;;;;;;;4915954;29;20130;-78
2021/12/01 12:44:31;;;;;;;3.83;2.45;;;;;;;;;;4933975;29;20039;-78
2021/12/01 12:47:07;;;;;;;4.47;3.78;;;;;;;;;;4933961;29;20407;-77
2021/12/01 12:49:39;;;;;;;5.60;4.32;;;;;;;;;;4934426;29;20462;-77
2021/12/01 12:52:24;;;;;;;2.22;2.03;;;;;;;;;;4934293;29;20054;-77
2021/12/01 12:55:00;;;;;;;2.90;2.70;;;;;;;;;;4930886;29;20035;-78
2021/12/01 12:57:59;;;;;;;2.60;2.40;;;;;;;;;;4934554;29;20039;-79
2021/12/01 13:00:36;;;;;;;2.63;2.45;;;;;;;;;;4936358;29;20050;-78
2021/12/01 13:03:23;;;;;;;4.20;2.58;;;;;;;;;;4934851;29;20383;-81
2021/12/01 13:05:50;;;;;;;3.03;2.63;;;;;;;;;;4934682;29;20036;-78
2021/12/01 13:08:28;;;;;;;2.90;2.70;;;;;;;;;;4935299;29;20045;-81
2021/12/01 13:10:59;;;;;;;3.95;2.90;;;;;;;;;;4935041;29;20043;-81
2021/12/01 13:13:34;;;;;;;3.22;2.92;;;;;;;;;;4934618;29;20043;-80
2021/12/01 13:16:00;;;;;;;3.33;2.88;;;;;;;;;;4931118;29;20102;-79
2021/12/01 13:18:27;;;;;;;2.38;2.28;;;;;;;;;;4934787;29;20098;-79
2021/12/01 13:20:58;;;;;;;4.13;3.28;;;;;;;;;;4955014;28;20073;-81
2021/12/01 13:23:31;;;;;;;5.90;5.60;;;;;;;;;;4973296;28;20035;-78
2021/12/01 13:26:13;;;;;;;4.05;2.92;;;;;;;;;;4972114;28;20122;-77
2021/12/01 13:28:42;;;;;;;2.72;2.30;;;;;;;;;;4971809;28;20890;-81
2021/12/01 13:31:23;;;;;;;3.80;3.40;;;;;;;;;;4973504;28;20069;-80
2021/12/01 13:34:05;;;;;;;4.03;2.42;;;;;;;;;;4972260;28;20523;-77
2021/12/01 13:36:34;;;;;;;3.15;2.88;;;;;;;;;;4971800;28;20489;-78
2021/12/01 13:39:08;;;;;;;2.92;2.72;;;;;;;;;;4967923;28;20030;-78
2021/12/01 13:41:43;;;;;;;4.75;3.13;;;;;;;;;;4973187;28;20045;-78
2021/12/01 13:44:13;;;;;;;4.28;2.42;;;;;;;;;;4972433;28;20042;-80
2021/12/01 13:46:42;;;;;;;3.03;2.83;;;;;;;;;;4972398;28;20041;-78
2021/12/01 13:49:08;;;;;;;3.10;2.80;;;;;;;;;;4973068;28;20043;-82
2021/12/01 13:51:38;;;;;;;4.28;3.13;;;;;;;;;;4973362;28;20114;-82
2021/12/01 13:54:23;;;;;;;2.97;2.60;;;;;;;;;;4972465;28;20043;-81
2021/12/01 13:57:08;;;;;;;2.72;2.53;;;;;;;;;;4972639;28;20494;-79
2021/12/01 13:59:43;;;;;;;2.58;2.33;;;;;;;;;;4969321;28;20061;-80
2021/12/01 14:02:09;;;;;;;3.83;2.63;;;;;;;;;;4967034;28;20054;-80
2021/12/01 14:04:35;;;;;;;2.90;2.63;;;;;;;;;;4950955;29;20031;-80
2021/12/01 14:07:01;;;;;;;3.63;3.42;;;;;;;;;;4949909;29;20057;-81
2021/12/01 14:09:36;;;;;;;2.67;2.47;;;;;;;;;;4935346;29;20118;-79
2021/12/01 14:12:16;;;;;;;2.78;2.58;;;;;;;;;;4934268;29;20380;-83
2021/12/01 14:14:42;;;;;;;2.60;2.40;;;;;;;;;;4934935;29;20455;-80
2021/12/01 14:17:07;;;;;;;5.15;2.35;;;;;;;;;;4933143;29;20039;-82
2021/12/01 14:19:34;;;;;;;2.85;2.65;;;;;;;;;;4932675;29;20090;-80
2021/12/01 14:22:09;;;;;;;3.22;3.03;;;;;;;;;;4968547;28;20034;-78
2021/12/01 14:24:34;;;;;;;2.50;2.30;;;;;;;;;;4971992;28;20062;-79
2021/12/01 14:27:07;;;;;;;2.97;2.70;;;;;;;;;;4970834;28;20027;-82
2021/12/01 14:29:36;;;;;;;2.90;2.70;;;;;;;;;;4953709;28;20055;-80
2021/12/01 14:32:03;;;;;;;3.75;3.08;;;;;;;;;;4971503;28;20046;-79
2021/12/01 14:34:32;;;;;;;3.78;2.85;;;;;;;;;;4971756;28;20082;-82
2021/12/01 14:36:59;;;;;;;3.88;2.75;;;;;;;;;;4971702;28;20034;-79
2021/12/01 14:39:25;;;;;;;3.75;2.63;;;;;;;;;;4971883;28;20035;-80
2021/12/01 14:41:52;;;;;;;3.25;3.05;;;;;;;;;;4971603;28;20391;-80
2021/12/01 14:44:23;;;;;;;4.38;2.88;;;;;;;;;;4969098;28;20057;-78
2021/12/01 14:47:05;;;;;;;3.22;2.72;;;;;;;;;;4971947;28;20170;-80
2021/12/01 14:49:51;;;;;;;4.18;3.88;;;;;;;;;;4971415;28;20767;-80
2021/12/01 14:52:25;;;;;;;2.90;2.70;;;;;;;;;;4971737;28;20043;-82
2021/12/01 14:54:54;;;;;;;2.97;2.78;;;;;;;;;;4971738;28;20509;-80
2021/12/01 14:57:22;;;;;;;5.25;2.90;;;;;;;;;;4971500;28;20039;-80
2021/12/01 14:59:52;;;;;;;4.53;4.22;;;;;;;;;;4972083;28;20440;-86
2021/12/01 15:02:24;;;;;;;2.80;2.60;;;;;;;;;;4973059;28;20054;-81